• Join FlightAware (Why Join?)
  • Login
  • US Flag 
04:53PM EDT


 

Airport Tracker/Info


-or-


 

Live Flight TrackerFlight Track Log ✈ IFL471 ✈ 20-Apr-2012 ✈ KPTK - KPTK

Flight Track Log - Related Links

Times and Time Zones

All times are in EDT time to prevent confusion due to time zone crossing. See the IFL471 flight status page for this flight to view local times or setup timezone preferences in your user account.

Time Position Orientation Groundspeed Altitude Reporting Facility
EDT Latitude Longitude Course Direction KTS MPH feet Rate Location/Type
05:39PM 42.6622 -83.4464 322° Northwest 160 184 1,900  Level Cleveland Center
05:41PM 42.7292 -83.5172 65° Northeast 295 339 5,100 2,160 Climbing Cleveland Center
05:42PM 42.7606 -83.4253 63° Northeast 237 273 8,100 2,520 Climbing Cleveland Center
05:43PM 42.7986 -83.3253 357° North 259 298 10,200 2,160 Climbing Cleveland Center
05:44PM 42.8881 -83.3319 North 300 345 12,500 1,980 Climbing Cleveland Center
05:45PM 42.9839 -83.3306 North 321 369 14,200 1,620 Climbing Cleveland Center
05:46PM 43.0819 -83.3233 356° North 348 400 15,800 1,440 Climbing Cleveland Center
05:47PM 43.1797 -83.3333 328° Northwest 353 406 17,100 1,500 Climbing Cleveland Center
05:48PM 43.2472 -83.3906 312° West 322 371 18,900 1,440 Climbing Cleveland Center
05:49PM 43.3033 -83.4758 311° West 300 345 20,000 1,320 Climbing Cleveland Center
05:50PM 43.3617 -83.5672 312° West 300 345 21,600 1,800 Climbing Cleveland Center
05:51PM 43.4217 -83.6586 313° West 323 372 23,600 1,680 Climbing Cleveland Center
05:52PM 43.4858 -83.7536 313° West 330 380 25,000 1,200 Climbing Cleveland Center
05:54PM 43.6472 -83.9914 312° West 344 396 28,000 900 Climbing Minneapolis Center
05:55PM 43.7217 -84.1058 316° Northwest 365 420 28,200 60 Climbing Minneapolis Center
05:56PM 43.8064 -84.2194 331° Northwest 399 459 28,200 -120 Level Minneapolis Center
05:57PM 43.9136 -84.3036 327° Northwest 428 493 28,000 -120 Descending Minneapolis Center
05:58PM 44.0086 -84.3897 312° West 428 493 28,000  Level Minneapolis Center
05:59PM 44.0825 -84.5031 318° Northwest 405 466 28,100 60 Climbing Minneapolis Center
06:00PM 44.1658 -84.6061 314° West 405 466 28,200 -60 Climbing Minneapolis Center
06:01PM 44.2436 -84.7192 301° West 405 466 28,000 -120 Descending Minneapolis Center
06:02PM 44.2975 -84.8447 293° West 398 458 28,000  Level Minneapolis Center
06:03PM 44.3364 -84.9728 297° West 378 435 28,100  Climbing Minneapolis Center
06:04PM 44.3839 -85.1028 314° West 372 428 28,100  Level Minneapolis Center
06:05PM 44.4608 -85.2139 311° West 372 428 28,200  Climbing Minneapolis Center
06:06PM 44.5319 -85.3292 304° West 388 447 28,100  Descending Minneapolis Center
06:07PM 44.5911 -85.4525 309° West 388 447 28,200 -120 Climbing Minneapolis Center
06:08PM 44.6578 -85.5689 356° North 388 447 27,900 -240 Descending Minneapolis Center
06:09PM 44.7797 -85.5814 60° Northeast 388 447 27,800  Descending Minneapolis Center
06:10PM 44.8439 -85.4256 127° Southeast 334 384 28,000 180 Climbing Minneapolis Center
06:11PM 44.7764 -85.3003 150° Southeast 260 299 28,200 60 Climbing Minneapolis Center
06:12PM 44.6875 -85.2281 150° Southeast 286 329 28,200 -60 Level Minneapolis Center
06:13PM 44.5986 -85.1561 149° Southeast 333 383 28,100 -60 Descending Minneapolis Center
06:14PM 44.5097 -85.0814 150° Southeast 355 409 28,100  Level Minneapolis Center
06:15PM 44.4183 -85.0072 150° Southeast 369 425 28,100  Level Minneapolis Center
06:16PM 44.3294 -84.9361 151° Southeast 374 430 28,100 -900 Level Minneapolis Center
06:18PM 44.1519 -84.7997 151° Southeast 374 430 25,400 -1,920 Descending Minneapolis Center
06:19PM 44.0631 -84.7319 150° Southeast 379 436 22,500 -1,980 Descending Minneapolis Center
06:21PM 43.8850 -84.5894 153° Southeast 368 423 19,700 -1,140 Descending Cleveland Center
06:22PM 43.7917 -84.5231 150° Southeast 373 429 19,300 -1,500 Descending Cleveland Center
06:23PM 43.7042 -84.4542 149° Southeast 373 429 16,800 -2,820 Descending Cleveland Center
06:24PM 43.6250 -84.3889 151° Southeast 354 407 13,700 -2,760 Descending Cleveland Center
06:25PM 43.5439 -84.3267 146° Southeast 340 391 11,300 -1,320 Descending Cleveland Center
06:26PM 43.4789 -84.2653 149° Southeast 334 384 11,100 -60 Descending Cleveland Center
06:27PM 43.3958 -84.1975 148° Southeast 329 379 11,200 -180 Climbing Cleveland Center
06:28PM 43.3186 -84.1303 148° Southeast 329 379 10,800 -480 Descending Cleveland Center
06:29PM 43.2433 -84.0661 150° Southeast 329 379 10,300 -1,260 Descending Cleveland Center
06:30PM 43.1742 -84.0108 148° Southeast 305 351 8,300 -2,220 Descending Cleveland Center
06:31PM 43.1092 -83.9561 148° Southeast 287 330 5,900 -1,560 Descending Cleveland Center
06:32PM 43.0522 -83.9075 148° Southeast 256 295 5,200 -360 Descending Cleveland Center
06:33PM 42.9911 -83.8561 150° Southeast 250 288 5,200 -120 Level Cleveland Center
06:34PM 42.9258 -83.8044 148° Southeast 244 281 5,000 -180 Descending Cleveland Center
06:35PM 42.8933 -83.7772 141° Southeast 238 274 5,000  Level Cleveland Center
06:36PM 42.8344 -83.7119 120° Southeast 243 280 5,100 -540 Climbing Cleveland Center
06:37PM 42.7897 -83.6078 119° Southeast 271 312 3,800 -900 Descending FAA TRACON SMA TRACON (SMA)
06:38PM 42.7678 -83.5536 102° East 250 288 3,400 -540 Descending FAA TRACON SMA TRACON (SMA)
06:38PM 42.7581 -83.4908 97° East 243 280 3,100 -420 Descending FAA TRACON SMA TRACON (SMA)
06:39PM 42.7531 -83.4322 91° East 238 274 2,900  Descending FAA TRACON SMA TRACON (SMA)
06:40PM 42.7525 -83.3753 89° East 232 267 3,100 60 Climbing FAA TRACON SMA TRACON (SMA)
06:40PM 42.7536 -83.3100 99° East 247 284 3,000  Descending FAA TRACON SMA TRACON (SMA)
06:41PM 42.7439 -83.2225 163° South 253 291 3,100  Climbing FAA TRACON SMA TRACON (SMA)
06:42PM 42.7008 -83.2044 217° Southwest 225 259 3,000  Descending FAA TRACON SMA TRACON (SMA)
06:43PM 42.6758 -83.2297 253° West 173 199 3,100 -420 Climbing FAA TRACON SMA TRACON (SMA)
06:43PM 42.6678 -83.2656 271° West 152 175 2,500 -600 Descending FAA TRACON SMA TRACON (SMA)
06:44PM 42.6681 -83.2997 267° West 132 152 2,300 -540 Descending FAA TRACON SMA TRACON (SMA)
06:45PM 42.6667 -83.3344 267° West 137 158 1,800 -780 Descending FAA TRACON SMA TRACON (SMA)